sensor_id;sensor_type;location;lat;lon;timestamp;temperature;humidity
6740;DHT22;3407;49.882;10.920;2023-05-10T00:03:01;16.20;99.90
6740;DHT22;3407;49.882;10.920;2023-05-10T00:07:59;16.30;99.90
6740;DHT22;3407;49.882;10.920;2023-05-10T00:12:55;16.20;99.90
6740;DHT22;3407;49.882;10.920;2023-05-10T00:17:51;16.10;99.90
6740;DHT22;3407;49.882;10.920;2023-05-10T00:22:46;16.10;99.90
6740;DHT22;3407;49.882;10.920;2023-05-10T00:27:42;15.90;99.90
6740;DHT22;3407;49.882;10.920;2023-05-10T00:32:37;15.60;99.90
6740;DHT22;3407;49.882;10.920;2023-05-10T00:37:33;15.40;99.90
6740;DHT22;3407;49.882;10.920;2023-05-10T00:42:28;15.30;99.90
6740;DHT22;3407;49.882;10.920;2023-05-10T00:47:24;15.00;1.00
6740;DHT22;3407;49.882;10.920;2023-05-10T00:52:19;14.60;99.90
6740;DHT22;3407;49.882;10.920;2023-05-10T00:57:15;14.30;99.90
6740;DHT22;3407;49.882;10.920;2023-05-10T01:02:11;14.10;99.90
6740;DHT22;3407;49.882;10.920;2023-05-10T01:07:07;13.90;1.00
6740;DHT22;3407;49.882;10.920;2023-05-10T01:12:03;13.70;1.00
6740;DHT22;3407;49.882;10.920;2023-05-10T01:17:00;13.70;99.90
6740;DHT22;3407;49.882;10.920;2023-05-10T01:27:51;13.60;1.00
6740;DHT22;3407;49.882;10.920;2023-05-10T01:37:56;13.60;1.00
6740;DHT22;3407;49.882;10.920;2023-05-10T01:43:03;13.50;1.00
6740;DHT22;3407;49.882;10.920;2023-05-10T01:48:05;13.50;1.00
6740;DHT22;3407;49.882;10.920;2023-05-10T01:53:02;13.50;1.00
6740;DHT22;3407;49.882;10.920;2023-05-10T01:58:13;13.60;1.00
6740;DHT22;3407;49.882;10.920;2023-05-10T02:03:11;13.40;1.00
6740;DHT22;3407;49.882;10.920;2023-05-10T02:08:07;13.40;5.60
6740;DHT22;3407;49.882;10.920;2023-05-10T02:13:04;13.30;3.60
6740;DHT22;3407;49.882;10.920;2023-05-10T02:18:02;13.30;4.30
6740;DHT22;3407;49.882;10.920;2023-05-10T02:22:59;13.40;21.30
6740;DHT22;3407;49.882;10.920;2023-05-10T02:27:57;13.50;35.90
6740;DHT22;3407;49.882;10.920;2023-05-10T02:32:53;13.50;24.70
6740;DHT22;3407;49.882;10.920;2023-05-10T02:37:49;13.30;25.40
6740;DHT22;3407;49.882;10.920;2023-05-10T02:42:47;13.30;39.10
6740;DHT22;3407;49.882;10.920;2023-05-10T02:47:44;13.30;42.70
6740;DHT22;3407;49.882;10.920;2023-05-10T02:52:44;13.20;49.80
6740;DHT22;3407;49.882;10.920;2023-05-10T02:58:02;13.30;56.20
6740;DHT22;3407;49.882;10.920;2023-05-10T03:02:58;13.30;67.10
6740;DHT22;3407;49.882;10.920;2023-05-10T03:07:53;13.30;78.20
6740;DHT22;3407;49.882;10.920;2023-05-10T03:13:13;13.50;92.10
6740;DHT22;3407;49.882;10.920;2023-05-10T03:18:18;13.60;94.40
6740;DHT22;3407;49.882;10.920;2023-05-10T03:23:26;13.70;96.00
6740;DHT22;3407;49.882;10.920;2023-05-10T03:28:25;13.80;97.10
6740;DHT22;3407;49.882;10.920;2023-05-10T03:33:21;13.70;95.20
6740;DHT22;3407;49.882;10.920;2023-05-10T03:38:16;13.80;99.10
6740;DHT22;3407;49.882;10.920;2023-05-10T03:43:12;13.80;98.30
6740;DHT22;3407;49.882;10.920;2023-05-10T03:48:07;13.70;96.20
6740;DHT22;3407;49.882;10.920;2023-05-10T03:53:03;13.70;98.00
6740;DHT22;3407;49.882;10.920;2023-05-10T03:57:58;13.80;99.90
6740;DHT22;3407;49.882;10.920;2023-05-10T04:02:54;13.90;99.90
6740;DHT22;3407;49.882;10.920;2023-05-10T04:07:49;13.80;99.90
6740;DHT22;3407;49.882;10.920;2023-05-10T04:12:46;13.90;99.90
6740;DHT22;3407;49.882;10.920;2023-05-10T04:17:41;13.90;99.90
6740;DHT22;3407;49.882;10.920;2023-05-10T04:22:37;13.80;99.90
6740;DHT22;3407;49.882;10.920;2023-05-10T04:27:33;13.90;99.90
6740;DHT22;3407;49.882;10.920;2023-05-10T04:32:28;14.00;99.90
6740;DHT22;3407;49.882;10.920;2023-05-10T04:37:24;14.00;99.90
6740;DHT22;3407;49.882;10.920;2023-05-10T04:42:20;14.00;99.90
6740;DHT22;3407;49.882;10.920;2023-05-10T04:47:15;13.80;99.90
6740;DHT22;3407;49.882;10.920;2023-05-10T04:52:11;13.90;99.90
6740;DHT22;3407;49.882;10.920;2023-05-10T04:57:07;13.80;99.50
6740;DHT22;3407;49.882;10.920;2023-05-10T05:02:02;13.80;98.40
6740;DHT22;3407;49.882;10.920;2023-05-10T05:06:58;13.80;96.40
6740;DHT22;3407;49.882;10.920;2023-05-10T05:11:54;13.70;93.10
6740;DHT22;3407;49.882;10.920;2023-05-10T05:16:49;13.60;92.80
6740;DHT22;3407;49.882;10.920;2023-05-10T05:21:45;13.70;92.90
6740;DHT22;3407;49.882;10.920;2023-05-10T05:26:41;13.70;91.80
6740;DHT22;3407;49.882;10.920;2023-05-10T05:31:36;13.80;91.90
6740;DHT22;3407;49.882;10.920;2023-05-10T05:36:32;13.90;89.40
6740;DHT22;3407;49.882;10.920;2023-05-10T05:41:28;14.10;90.10
6740;DHT22;3407;49.882;10.920;2023-05-10T05:46:23;14.40;80.70
6740;DHT22;3407;49.882;10.920;2023-05-10T05:51:19;14.60;68.00
6740;DHT22;3407;49.882;10.920;2023-05-10T05:56:14;14.70;50.10
6740;DHT22;3407;49.882;10.920;2023-05-10T06:01:10;14.80;41.40
6740;DHT22;3407;49.882;10.920;2023-05-10T06:06:05;15.00;29.00
6740;DHT22;3407;49.882;10.920;2023-05-10T06:11:01;15.10;11.80
6740;DHT22;3407;49.882;10.920;2023-05-10T06:15:56;15.20;1.00
6740;DHT22;3407;49.882;10.920;2023-05-10T06:20:52;15.20;1.00
6740;DHT22;3407;49.882;10.920;2023-05-10T06:25:47;15.20;1.00
6740;DHT22;3407;49.882;10.920;2023-05-10T06:30:43;15.20;1.00
6740;DHT22;3407;49.882;10.920;2023-05-10T06:35:40;15.40;1.00
6740;DHT22;3407;49.882;10.920;2023-05-10T06:40:36;15.60;1.00
6740;DHT22;3407;49.882;10.920;2023-05-10T06:45:31;15.70;1.00
6740;DHT22;3407;49.882;10.920;2023-05-10T06:50:27;15.80;1.00
6740;DHT22;3407;49.882;10.920;2023-05-10T06:55:22;15.90;1.00
6740;DHT22;3407;49.882;10.920;2023-05-10T07:00:18;15.90;1.00
6740;DHT22;3407;49.882;10.920;2023-05-10T07:05:14;16.40;1.00
6740;DHT22;3407;49.882;10.920;2023-05-10T07:10:10;16.70;99.90
6740;DHT22;3407;49.882;10.920;2023-05-10T07:15:06;17.10;26.20
6740;DHT22;3407;49.882;10.920;2023-05-10T07:20:02;17.30;1.00
6740;DHT22;3407;49.882;10.920;2023-05-10T07:24:58;17.50;1.00
6740;DHT22;3407;49.882;10.920;2023-05-10T07:29:54;17.60;99.90
6740;DHT22;3407;49.882;10.920;2023-05-10T07:34:50;17.70;1.00
6740;DHT22;3407;49.882;10.920;2023-05-10T07:39:45;17.80;99.90
6740;DHT22;3407;49.882;10.920;2023-05-10T07:44:41;17.80;99.90
6740;DHT22;3407;49.882;10.920;2023-05-10T07:49:37;18.00;1.00
6740;DHT22;3407;49.882;10.920;2023-05-10T07:54:32;18.20;1.00
6740;DHT22;3407;49.882;10.920;2023-05-10T07:59:29;18.50;99.90
6740;DHT22;3407;49.882;10.920;2023-05-10T08:04:24;18.40;1.00
6740;DHT22;3407;49.882;10.920;2023-05-10T08:09:20;18.40;1.00
6740;DHT22;3407;49.882;10.920;2023-05-10T08:14:19;18.60;1.00
6740;DHT22;3407;49.882;10.920;2023-05-10T08:19:14;19.00;99.90
6740;DHT22;3407;49.882;10.920;2023-05-10T08:24:14;19.00;1.00
6740;DHT22;3407;49.882;10.920;2023-05-10T08:29:09;18.80;99.90
6740;DHT22;3407;49.882;10.920;2023-05-10T08:34:05;18.80;99.90
6740;DHT22;3407;49.882;10.920;2023-05-10T08:39:01;19.00;17.80
6740;DHT22;3407;49.882;10.920;2023-05-10T08:43:56;19.20;1.00
6740;DHT22;3407;49.882;10.920;2023-05-10T08:48:53;19.40;1.00
6740;DHT22;3407;49.882;10.920;2023-05-10T08:53:50;19.20;1.00
6740;DHT22;3407;49.882;10.920;2023-05-10T08:58:45;18.90;1.00
6740;DHT22;3407;49.882;10.920;2023-05-10T09:03:41;18.50;99.90
6740;DHT22;3407;49.882;10.920;2023-05-10T09:08:37;18.30;25.50
6740;DHT22;3407;49.882;10.920;2023-05-10T09:13:33;18.50;99.90
6740;DHT22;3407;49.882;10.920;2023-05-10T09:18:28;19.00;41.70
6740;DHT22;3407;49.882;10.920;2023-05-10T09:28:08;19.00;1.00
6740;DHT22;3407;49.882;10.920;2023-05-10T09:33:04;19.10;1.00
6740;DHT22;3407;49.882;10.920;2023-05-10T09:38:03;19.30;1.00
6740;DHT22;3407;49.882;10.920;2023-05-10T09:43:01;19.30;1.00
6740;DHT22;3407;49.882;10.920;2023-05-10T09:47:57;19.30;1.00
6740;DHT22;3407;49.882;10.920;2023-05-10T09:53:00;19.40;1.00
6740;DHT22;3407;49.882;10.920;2023-05-10T09:57:59;19.80;1.00
6740;DHT22;3407;49.882;10.920;2023-05-10T10:02:59;22.20;99.90
6740;DHT22;3407;49.882;10.920;2023-05-10T10:07:56;23.10;99.90
6740;DHT22;3407;49.882;10.920;2023-05-10T10:12:53;22.70;99.90
6740;DHT22;3407;49.882;10.920;2023-05-10T10:17:49;24.80;99.90
6740;DHT22;3407;49.882;10.920;2023-05-10T10:22:46;27.90;99.90
6740;DHT22;3407;49.882;10.920;2023-05-10T10:38:22;22.10;99.90
6740;DHT22;3407;49.882;10.920;2023-05-10T10:43:22;20.60;99.90
6740;DHT22;3407;49.882;10.920;2023-05-10T10:48:21;19.80;99.90
6740;DHT22;3407;49.882;10.920;2023-05-10T10:53:17;19.50;99.90
6740;DHT22;3407;49.882;10.920;2023-05-10T10:58:29;19.80;99.90
6740;DHT22;3407;49.882;10.920;2023-05-10T11:03:26;20.30;99.90
6740;DHT22;3407;49.882;10.920;2023-05-10T11:08:29;21.20;99.90
6740;DHT22;3407;49.882;10.920;2023-05-10T11:13:44;23.20;99.90
6740;DHT22;3407;49.882;10.920;2023-05-10T11:18:40;23.70;99.90
6740;DHT22;3407;49.882;10.920;2023-05-10T11:23:58;22.60;99.90
6740;DHT22;3407;49.882;10.920;2023-05-10T11:28:54;21.30;99.90
6740;DHT22;3407;49.882;10.920;2023-05-10T11:33:52;20.60;99.90
6740;DHT22;3407;49.882;10.920;2023-05-10T11:38:48;20.70;99.90
6740;DHT22;3407;49.882;10.920;2023-05-10T11:43:46;20.80;99.90
6740;DHT22;3407;49.882;10.920;2023-05-10T11:48:43;21.70;99.90
6740;DHT22;3407;49.882;10.920;2023-05-10T11:53:39;23.00;99.90
6740;DHT22;3407;49.882;10.920;2023-05-10T11:58:35;23.50;99.90
6740;DHT22;3407;49.882;10.920;2023-05-10T12:03:31;23.10;99.90
6740;DHT22;3407;49.882;10.920;2023-05-10T12:08:29;22.70;99.90
6740;DHT22;3407;49.882;10.920;2023-05-10T12:13:25;22.80;99.90
6740;DHT22;3407;49.882;10.920;2023-05-10T12:18:23;23.60;99.90
6740;DHT22;3407;49.882;10.920;2023-05-10T12:23:20;23.80;99.90
6740;DHT22;3407;49.882;10.920;2023-05-10T12:28:19;23.50;99.90
6740;DHT22;3407;49.882;10.920;2023-05-10T12:33:15;23.10;99.90
6740;DHT22;3407;49.882;10.920;2023-05-10T12:38:35;22.70;99.90
6740;DHT22;3407;49.882;10.920;2023-05-10T12:43:32;22.30;99.90
6740;DHT22;3407;49.882;10.920;2023-05-10T12:48:28;22.40;99.90
6740;DHT22;3407;49.882;10.920;2023-05-10T12:53:26;22.50;99.90
6740;DHT22;3407;49.882;10.920;2023-05-10T12:58:22;22.70;99.90
6740;DHT22;3407;49.882;10.920;2023-05-10T13:03:18;23.00;99.90
6740;DHT22;3407;49.882;10.920;2023-05-10T13:08:13;23.10;99.90
6740;DHT22;3407;49.882;10.920;2023-05-10T13:13:09;23.20;99.90
6740;DHT22;3407;49.882;10.920;2023-05-10T13:18:05;22.90;99.90
6740;DHT22;3407;49.882;10.920;2023-05-10T13:23:00;22.60;99.90
6740;DHT22;3407;49.882;10.920;2023-05-10T13:27:56;22.20;99.90
6740;DHT22;3407;49.882;10.920;2023-05-10T13:32:51;22.30;99.90
6740;DHT22;3407;49.882;10.920;2023-05-10T13:37:47;22.40;99.90
6740;DHT22;3407;49.882;10.920;2023-05-10T13:42:42;22.80;99.90
6740;DHT22;3407;49.882;10.920;2023-05-10T13:47:38;23.20;99.90
6740;DHT22;3407;49.882;10.920;2023-05-10T13:52:33;22.70;99.90
6740;DHT22;3407;49.882;10.920;2023-05-10T13:57:29;22.20;99.90
6740;DHT22;3407;49.882;10.920;2023-05-10T14:02:25;21.70;99.90
6740;DHT22;3407;49.882;10.920;2023-05-10T14:07:22;21.20;99.90
6740;DHT22;3407;49.882;10.920;2023-05-10T14:12:18;20.60;99.90
6740;DHT22;3407;49.882;10.920;2023-05-10T14:17:13;20.00;99.90
6740;DHT22;3407;49.882;10.920;2023-05-10T14:22:09;19.60;1.00
6740;DHT22;3407;49.882;10.920;2023-05-10T14:27:04;19.50;1.00
6740;DHT22;3407;49.882;10.920;2023-05-10T14:32:01;19.30;1.00
6740;DHT22;3407;49.882;10.920;2023-05-10T14:36:56;19.60;1.00
6740;DHT22;3407;49.882;10.920;2023-05-10T14:41:52;19.70;99.90
6740;DHT22;3407;49.882;10.920;2023-05-10T14:46:47;19.70;99.90
6740;DHT22;3407;49.882;10.920;2023-05-10T14:51:44;20.00;99.90
6740;DHT22;3407;49.882;10.920;2023-05-10T14:56:40;20.10;99.90
6740;DHT22;3407;49.882;10.920;2023-05-10T15:01:36;20.20;99.90
6740;DHT22;3407;49.882;10.920;2023-05-10T15:06:34;20.00;99.90
6740;DHT22;3407;49.882;10.920;2023-05-10T15:11:30;19.70;99.90
6740;DHT22;3407;49.882;10.920;2023-05-10T15:16:26;19.40;99.90
6740;DHT22;3407;49.882;10.920;2023-05-10T15:21:21;19.20;99.90
6740;DHT22;3407;49.882;10.920;2023-05-10T15:26:17;18.90;99.90
6740;DHT22;3407;49.882;10.920;2023-05-10T15:31:12;18.70;99.90
6740;DHT22;3407;49.882;10.920;2023-05-10T15:36:08;18.50;99.90
6740;DHT22;3407;49.882;10.920;2023-05-10T15:41:03;18.40;99.90
6740;DHT22;3407;49.882;10.920;2023-05-10T15:45:59;18.30;99.90
6740;DHT22;3407;49.882;10.920;2023-05-10T15:50:55;18.10;99.90
6740;DHT22;3407;49.882;10.920;2023-05-10T15:55:51;18.00;99.90
6740;DHT22;3407;49.882;10.920;2023-05-10T16:00:46;17.80;1.00
6740;DHT22;3407;49.882;10.920;2023-05-10T16:05:42;17.80;1.00
6740;DHT22;3407;49.882;10.920;2023-05-10T16:10:37;17.70;1.00
6740;DHT22;3407;49.882;10.920;2023-05-10T16:15:33;17.70;1.00
6740;DHT22;3407;49.882;10.920;2023-05-10T16:20:28;17.60;1.00
6740;DHT22;3407;49.882;10.920;2023-05-10T16:25:24;17.60;1.00
6740;DHT22;3407;49.882;10.920;2023-05-10T16:30:20;17.60;1.00
6740;DHT22;3407;49.882;10.920;2023-05-10T16:35:16;17.50;99.90
6740;DHT22;3407;49.882;10.920;2023-05-10T16:40:11;17.40;99.90
6740;DHT22;3407;49.882;10.920;2023-05-10T16:45:07;17.30;1.00
6740;DHT22;3407;49.882;10.920;2023-05-10T16:50:05;17.10;1.00
6740;DHT22;3407;49.882;10.920;2023-05-10T16:55:01;17.00;99.90
6740;DHT22;3407;49.882;10.920;2023-05-10T16:59:58;17.00;1.00
6740;DHT22;3407;49.882;10.920;2023-05-10T17:04:53;16.90;68.40
6740;DHT22;3407;49.882;10.920;2023-05-10T17:09:50;16.80;99.90
6740;DHT22;3407;49.882;10.920;2023-05-10T17:14:46;16.70;1.00
6740;DHT22;3407;49.882;10.920;2023-05-10T17:19:44;16.70;1.00
6740;DHT22;3407;49.882;10.920;2023-05-10T17:24:39;16.60;99.90
6740;DHT22;3407;49.882;10.920;2023-05-10T17:29:35;16.50;1.00
6740;DHT22;3407;49.882;10.920;2023-05-10T17:34:30;16.50;99.90
6740;DHT22;3407;49.882;10.920;2023-05-10T17:39:26;16.30;99.90
6740;DHT22;3407;49.882;10.920;2023-05-10T17:44:22;16.20;1.00
6740;DHT22;3407;49.882;10.920;2023-05-10T17:49:19;16.20;99.90
6740;DHT22;3407;49.882;10.920;2023-05-10T17:54:14;16.10;99.90
6740;DHT22;3407;49.882;10.920;2023-05-10T17:59:10;16.00;1.00
6740;DHT22;3407;49.882;10.920;2023-05-10T18:04:06;15.80;1.00
6740;DHT22;3407;49.882;10.920;2023-05-10T18:09:03;15.70;1.00
6740;DHT22;3407;49.882;10.920;2023-05-10T18:13:59;15.50;1.00
6740;DHT22;3407;49.882;10.920;2023-05-10T18:18:54;15.40;1.00
6740;DHT22;3407;49.882;10.920;2023-05-10T18:23:50;15.20;1.00
6740;DHT22;3407;49.882;10.920;2023-05-10T18:28:46;14.90;1.00
6740;DHT22;3407;49.882;10.920;2023-05-10T18:33:41;14.80;1.00
6740;DHT22;3407;49.882;10.920;2023-05-10T18:38:37;14.80;2.70
6740;DHT22;3407;49.882;10.920;2023-05-10T18:43:33;14.70;6.20
6740;DHT22;3407;49.882;10.920;2023-05-10T18:48:29;14.70;20.50
6740;DHT22;3407;49.882;10.920;2023-05-10T18:53:25;14.60;25.10
6740;DHT22;3407;49.882;10.920;2023-05-10T18:58:20;14.50;26.00
6740;DHT22;3407;49.882;10.920;2023-05-10T19:03:16;14.40;30.80
6740;DHT22;3407;49.882;10.920;2023-05-10T19:08:12;14.40;46.40
6740;DHT22;3407;49.882;10.920;2023-05-10T19:13:07;14.40;55.70
6740;DHT22;3407;49.882;10.920;2023-05-10T19:18:03;14.30;63.20
6740;DHT22;3407;49.882;10.920;2023-05-10T19:22:58;14.30;70.40
6740;DHT22;3407;49.882;10.920;2023-05-10T19:27:55;14.20;71.60
6740;DHT22;3407;49.882;10.920;2023-05-10T19:32:51;14.10;74.20
6740;DHT22;3407;49.882;10.920;2023-05-10T19:37:47;14.10;79.80
6740;DHT22;3407;49.882;10.920;2023-05-10T19:42:43;14.10;87.80
6740;DHT22;3407;49.882;10.920;2023-05-10T19:47:39;14.00;85.00
6740;DHT22;3407;49.882;10.920;2023-05-10T19:52:36;13.90;85.90
6740;DHT22;3407;49.882;10.920;2023-05-10T19:57:31;13.90;90.00
6740;DHT22;3407;49.882;10.920;2023-05-10T20:02:27;13.70;81.00
6740;DHT22;3407;49.882;10.920;2023-05-10T20:07:22;13.60;84.90
6740;DHT22;3407;49.882;10.920;2023-05-10T20:12:18;13.50;90.70
6740;DHT22;3407;49.882;10.920;2023-05-10T20:17:13;13.70;95.30
6740;DHT22;3407;49.882;10.920;2023-05-10T20:22:09;13.70;96.10
6740;DHT22;3407;49.882;10.920;2023-05-10T20:27:04;13.60;94.90
6740;DHT22;3407;49.882;10.920;2023-05-10T20:32:00;13.50;92.80
6740;DHT22;3407;49.882;10.920;2023-05-10T20:36:56;13.30;90.40
6740;DHT22;3407;49.882;10.920;2023-05-10T20:41:52;13.30;92.50
6740;DHT22;3407;49.882;10.920;2023-05-10T20:46:49;13.30;93.80
6740;DHT22;3407;49.882;10.920;2023-05-10T20:51:44;13.20;94.10
6740;DHT22;3407;49.882;10.920;2023-05-10T20:56:39;13.20;95.20
6740;DHT22;3407;49.882;10.920;2023-05-10T21:01:35;13.20;93.80
6740;DHT22;3407;49.882;10.920;2023-05-10T21:06:30;13.10;96.10
6740;DHT22;3407;49.882;10.920;2023-05-10T21:11:26;13.30;99.30
6740;DHT22;3407;49.882;10.920;2023-05-10T21:16:22;13.40;99.90
6740;DHT22;3407;49.882;10.920;2023-05-10T21:21:17;13.30;98.20
6740;DHT22;3407;49.882;10.920;2023-05-10T21:26:13;13.30;99.20
6740;DHT22;3407;49.882;10.920;2023-05-10T21:31:09;13.20;98.10
6740;DHT22;3407;49.882;10.920;2023-05-10T21:36:04;13.30;99.90
6740;DHT22;3407;49.882;10.920;2023-05-10T21:41:00;13.30;99.90
6740;DHT22;3407;49.882;10.920;2023-05-10T21:45:56;13.30;99.90
6740;DHT22;3407;49.882;10.920;2023-05-10T21:50:52;13.30;99.90
6740;DHT22;3407;49.882;10.920;2023-05-10T21:55:47;13.20;99.90
6740;DHT22;3407;49.882;10.920;2023-05-10T22:00:43;13.10;99.90
6740;DHT22;3407;49.882;10.920;2023-05-10T22:05:38;13.10;99.90
6740;DHT22;3407;49.882;10.920;2023-05-10T22:10:34;13.20;99.90
6740;DHT22;3407;49.882;10.920;2023-05-10T22:15:29;13.20;99.90
6740;DHT22;3407;49.882;10.920;2023-05-10T22:20:26;13.20;99.90
6740;DHT22;3407;49.882;10.920;2023-05-10T22:25:22;13.30;99.90
6740;DHT22;3407;49.882;10.920;2023-05-10T22:30:17;13.10;99.90
6740;DHT22;3407;49.882;10.920;2023-05-10T22:35:13;13.10;99.90
6740;DHT22;3407;49.882;10.920;2023-05-10T22:40:09;12.90;99.90
6740;DHT22;3407;49.882;10.920;2023-05-10T22:45:06;12.90;99.90
6740;DHT22;3407;49.882;10.920;2023-05-10T22:50:02;13.00;99.90
6740;DHT22;3407;49.882;10.920;2023-05-10T22:55:00;13.10;99.90
6740;DHT22;3407;49.882;10.920;2023-05-10T22:59:55;13.10;99.90
6740;DHT22;3407;49.882;10.920;2023-05-10T23:04:51;13.10;99.90
6740;DHT22;3407;49.882;10.920;2023-05-10T23:09:47;13.00;99.90
6740;DHT22;3407;49.882;10.920;2023-05-10T23:14:43;13.00;99.90
6740;DHT22;3407;49.882;10.920;2023-05-10T23:19:40;13.00;99.90
6740;DHT22;3407;49.882;10.920;2023-05-10T23:24:36;13.10;99.90
6740;DHT22;3407;49.882;10.920;2023-05-10T23:29:32;13.00;99.90
6740;DHT22;3407;49.882;10.920;2023-05-10T23:34:29;13.00;99.90
6740;DHT22;3407;49.882;10.920;2023-05-10T23:39:24;12.90;99.90
6740;DHT22;3407;49.882;10.920;2023-05-10T23:44:20;13.10;99.90
6740;DHT22;3407;49.882;10.920;2023-05-10T23:49:16;13.00;99.90
6740;DHT22;3407;49.882;10.920;2023-05-10T23:54:11;13.10;99.90
6740;DHT22;3407;49.882;10.920;2023-05-10T23:59:07;13.10;99.90
